createdAt,value
2023-01-25T00:01:54.542Z,103085.52
2023-01-25T00:04:24.124Z,103083.73
2023-01-25T00:06:52.642Z,103086.92
2023-01-25T00:09:23.891Z,103093.96
2023-01-25T00:11:53.444Z,103094.14
2023-01-25T00:14:22.106Z,103096.95
2023-01-25T00:16:51.811Z,103092.73
2023-01-25T00:19:20.817Z,103093.61
2023-01-25T00:21:49.104Z,103089.55
2023-01-25T00:24:17.969Z,103089.35
2023-01-25T00:26:46.375Z,103093.58
2023-01-25T00:29:15.371Z,103093.55
2023-01-25T00:31:57.051Z,103094.97
2023-01-25T00:34:25.356Z,103091.80
2023-01-25T00:37:11.120Z,103095.50
2023-01-25T00:39:41.766Z,103094.11
2023-01-25T00:42:15.776Z,103099.40
2023-01-25T00:44:48.042Z,103093.75
2023-01-25T00:47:17.470Z,103093.77
2023-01-25T00:49:47.580Z,103094.83
2023-01-25T00:52:16.067Z,103095.73
2023-01-25T00:54:44.663Z,103093.47
2023-01-25T00:57:13.243Z,103092.61
2023-01-25T00:59:44.799Z,103089.30
2023-01-25T01:02:14.406Z,103088.77
2023-01-25T01:04:43.413Z,103089.14
2023-01-25T01:07:14.051Z,103083.69
2023-01-25T01:09:42.632Z,103079.64
2023-01-25T01:12:11.438Z,103074.20
2023-01-25T01:14:39.912Z,103073.83
2023-01-25T01:17:08.194Z,103076.84
2023-01-25T01:19:36.370Z,103073.33
2023-01-25T01:22:04.973Z,103075.28
2023-01-25T01:24:33.248Z,103072.09
2023-01-25T01:27:01.526Z,103070.85
2023-01-25T01:29:30.321Z,103068.54
2023-01-25T01:31:59.036Z,103066.41
2023-01-25T01:34:28.625Z,103060.90
2023-01-25T01:36:56.801Z,103056.46
2023-01-25T01:39:25.391Z,103057.85
2023-01-25T01:41:53.799Z,103057.14
2023-01-25T01:44:45.398Z,103057.48
2023-01-25T01:47:22.382Z,103051.34
2023-01-25T01:49:56.325Z,103052.42
2023-01-25T01:52:31.036Z,103049.08
2023-01-25T01:55:05.541Z,103049.81
2023-01-25T01:57:43.642Z,103048.77
2023-01-25T02:00:18.162Z,103045.61
2023-01-25T02:02:50.371Z,103050.56
2023-01-25T02:05:40.928Z,103048.81
2023-01-25T02:08:13.680Z,103042.48
2023-01-25T02:10:44.402Z,103038.63
2023-01-25T02:13:13.157Z,103033.88
2023-01-25T02:15:45.437Z,103032.29
2023-01-25T02:18:14.930Z,103029.82
2023-01-25T02:20:46.399Z,103026.98
2023-01-25T02:23:32.371Z,103025.77
2023-01-25T02:26:04.384Z,103024.52
2023-01-25T02:28:53.819Z,103026.62
2023-01-25T02:31:25.415Z,103025.36
2023-01-25T02:33:54.573Z,103024.63
2023-01-25T02:36:25.806Z,103028.09
2023-01-25T02:39:01.662Z,103022.59
2023-01-25T02:41:36.876Z,103019.73
2023-01-25T02:44:12.730Z,103014.77
2023-01-25T02:46:45.163Z,103009.48
2023-01-25T02:49:15.465Z,103009.98
2023-01-25T02:51:47.017Z,103008.73
2023-01-25T02:54:18.063Z,103007.68
2023-01-25T02:56:47.120Z,103008.41
2023-01-25T02:59:15.854Z,103003.83
2023-01-25T03:01:48.348Z,103005.81
2023-01-25T03:04:17.679Z,103006.55
2023-01-25T03:06:46.022Z,103002.34
2023-01-25T03:09:14.506Z,103000.25
2023-01-25T03:11:46.578Z,103000.44
2023-01-25T03:14:15.171Z,103002.58
2023-01-25T03:16:43.352Z,103002.25
2023-01-25T03:19:11.634Z,103003.15
2023-01-25T03:21:41.961Z,102998.40
2023-01-25T03:24:11.540Z,102996.11
2023-01-25T03:27:03.085Z,102991.36
2023-01-25T03:29:37.961Z,102987.16
2023-01-25T03:32:09.877Z,102985.56
2023-01-25T03:34:38.497Z,102984.71
2023-01-25T03:37:07.263Z,102981.36
2023-01-25T03:39:35.769Z,102982.77
2023-01-25T03:42:04.872Z,102982.78
2023-01-25T03:44:33.440Z,102985.95
2023-01-25T03:47:01.982Z,102981.50
2023-01-25T03:49:30.720Z,102979.17
2023-01-25T03:51:59.205Z,102981.29
2023-01-25T03:54:34.853Z,102980.79
2023-01-25T03:57:04.478Z,102982.57
2023-01-25T03:59:38.890Z,102987.17
2023-01-25T04:02:07.527Z,102988.95
2023-01-25T04:04:36.377Z,102988.38
2023-01-25T04:07:05.276Z,102986.25
2023-01-25T04:09:34.478Z,102986.20
2023-01-25T04:12:02.963Z,102983.73
2023-01-25T04:14:44.048Z,102985.48
2023-01-25T04:17:17.023Z,102982.66
2023-01-25T04:19:51.445Z,102980.73
2023-01-25T04:22:21.369Z,102980.91
2023-01-25T04:24:50.786Z,102980.21
2023-01-25T04:27:19.261Z,102980.96
2023-01-25T04:29:56.651Z,102983.66
2023-01-25T04:32:26.063Z,102984.02
2023-01-25T04:34:54.756Z,102985.78
2023-01-25T04:37:24.976Z,102987.02
2023-01-25T04:39:58.997Z,102990.70
2023-01-25T04:42:28.099Z,102987.92
2023-01-25T04:44:57.905Z,102988.28
2023-01-25T04:47:26.195Z,102995.17
2023-01-25T04:49:54.474Z,102996.59
2023-01-25T04:52:25.315Z,102995.55
2023-01-25T04:54:53.701Z,102996.79
2023-01-25T04:57:22.694Z,102994.84
2023-01-25T04:59:53.430Z,102989.89
2023-01-25T05:02:22.828Z,102999.41
2023-01-25T05:04:51.532Z,103000.29
2023-01-25T05:07:21.552Z,102999.75
2023-01-25T05:09:50.055Z,103001.15
2023-01-25T05:12:20.683Z,102998.49
2023-01-25T05:14:58.596Z,103000.25
2023-01-25T05:17:27.071Z,102997.23
2023-01-25T05:19:55.351Z,102999.36
2023-01-25T05:22:24.667Z,102998.48
2023-01-25T05:24:54.371Z,103000.42
2023-01-25T05:27:23.063Z,103002.54
2023-01-25T05:29:58.197Z,103003.59
2023-01-25T05:33:05.569Z,103005.70
2023-01-25T05:35:34.701Z,103008.69
2023-01-25T05:38:03.463Z,103016.09
2023-01-25T05:40:31.746Z,103019.61
2023-01-25T05:43:01.260Z,103017.50
2023-01-25T05:45:31.385Z,103015.04
2023-01-25T05:48:00.022Z,103013.23
2023-01-25T05:50:28.484Z,103016.05
2023-01-25T05:53:07.789Z,103014.63
2023-01-25T05:55:37.162Z,103019.02
2023-01-25T05:58:09.066Z,103018.27
2023-01-25T06:00:37.650Z,103026.91
2023-01-25T06:03:07.636Z,103026.39
2023-01-25T06:05:38.002Z,103026.91
2023-01-25T06:08:06.493Z,103028.15
2023-01-25T06:10:43.885Z,103029.92
2023-01-25T06:13:12.271Z,103031.16
2023-01-25T06:15:40.682Z,103027.65
2023-01-25T06:18:31.276Z,103032.41
2023-01-25T06:21:21.934Z,103027.65
2023-01-25T06:23:50.329Z,103027.14
2023-01-25T06:26:18.801Z,103027.16
2023-01-25T06:28:47.905Z,103029.80
2023-01-25T06:31:18.704Z,103026.98
2023-01-25T06:33:51.288Z,103031.23
2023-01-25T06:36:23.060Z,103033.14
2023-01-25T06:38:52.799Z,103031.89
2023-01-25T06:41:21.599Z,103034.67
2023-01-25T06:43:53.354Z,103032.85
2023-01-25T06:46:22.343Z,103034.58
2023-01-25T06:48:50.769Z,103034.02
2023-01-25T06:51:19.530Z,103036.62
2023-01-25T06:53:48.346Z,103033.95
2023-01-25T06:56:19.957Z,103036.75
2023-01-25T06:58:50.539Z,103030.20
2023-01-25T07:01:27.699Z,103029.31
2023-01-25T07:03:58.428Z,103028.92
2023-01-25T07:06:32.091Z,103026.10
2023-01-25T07:09:13.534Z,103025.92
2023-01-25T07:11:41.921Z,103025.79
2023-01-25T07:14:10.300Z,103027.23
2023-01-25T07:16:38.824Z,103031.85
2023-01-25T07:19:08.204Z,103029.93
2023-01-25T07:21:36.781Z,103032.40
2023-01-25T07:24:05.842Z,103032.59
2023-01-25T07:26:34.279Z,103025.35
2023-01-25T07:29:02.776Z,103028.02
2023-01-25T07:31:31.478Z,103025.56
2023-01-25T07:33:59.826Z,103024.17
2023-01-25T07:36:28.006Z,103021.74
2023-01-25T07:38:57.827Z,103020.00
2023-01-25T07:41:26.636Z,103017.54
2023-01-25T07:43:55.960Z,103017.37
2023-01-25T07:46:43.854Z,103019.66
2023-01-25T07:49:12.043Z,103020.02
2023-01-25T07:51:40.433Z,103017.16
2023-01-25T07:54:12.022Z,103016.41
2023-01-25T07:56:41.020Z,103016.72
2023-01-25T07:59:11.203Z,103019.13
2023-01-25T08:01:39.617Z,103018.73
2023-01-25T08:04:08.074Z,103018.15
2023-01-25T08:06:40.780Z,103013.56
2023-01-25T08:09:14.374Z,103016.07
2023-01-25T08:11:43.361Z,103011.02
2023-01-25T08:14:12.067Z,103010.64
2023-01-25T08:16:40.239Z,103008.27
2023-01-25T08:19:11.223Z,103008.25
2023-01-25T08:21:39.453Z,103006.84
2023-01-25T08:24:08.672Z,103005.95
2023-01-25T08:26:38.152Z,103007.02
2023-01-25T08:29:07.033Z,103005.61
2023-01-25T08:31:36.148Z,103001.21
2023-01-25T08:34:07.619Z,103003.70
2023-01-25T08:36:35.898Z,103002.84
2023-01-25T08:39:06.851Z,102999.14
2023-01-25T08:41:36.242Z,102995.60
2023-01-25T08:44:05.166Z,102995.95
2023-01-25T08:46:34.668Z,102995.61
2023-01-25T08:49:03.925Z,102989.81
2023-01-25T08:51:33.059Z,102991.77
2023-01-25T08:54:06.807Z,102993.17
2023-01-25T08:56:38.235Z,102992.83
2023-01-25T08:59:08.030Z,102992.30
2023-01-25T09:01:36.526Z,102995.31
2023-01-25T09:04:05.222Z,102992.52
2023-01-25T09:06:33.831Z,102987.55
2023-01-25T09:09:02.395Z,102985.27
2023-01-25T09:11:30.878Z,102984.04
2023-01-25T09:13:59.071Z,102983.34
2023-01-25T09:16:30.853Z,102978.23
2023-01-25T09:19:02.406Z,102976.29
2023-01-25T09:21:31.957Z,102975.21
2023-01-25T09:24:06.546Z,102969.89
2023-01-25T09:26:39.512Z,102961.74
2023-01-25T09:29:08.889Z,102957.48
2023-01-25T09:31:44.189Z,102950.71
2023-01-25T09:34:15.113Z,102946.42
2023-01-25T09:36:43.382Z,102942.65
2023-01-25T09:39:14.830Z,102942.78
2023-01-25T09:42:13.901Z,102943.35
2023-01-25T09:44:56.023Z,102939.29
2023-01-25T09:47:45.690Z,102931.47
2023-01-25T09:50:17.062Z,102926.65
2023-01-25T09:52:58.518Z,102923.98
2023-01-25T09:55:30.701Z,102921.67
2023-01-25T09:58:02.882Z,102918.66
2023-01-25T10:00:37.505Z,102911.73
2023-01-25T10:03:21.428Z,102906.39
2023-01-25T10:05:53.761Z,102906.56
2023-01-25T10:08:32.391Z,102904.58
2023-01-25T10:11:12.164Z,102899.42
2023-01-25T10:13:40.551Z,102895.67
2023-01-25T10:16:42.242Z,102889.16
2023-01-25T10:19:25.732Z,102883.52
2023-01-25T10:22:00.863Z,102881.02
2023-01-25T10:24:40.908Z,102878.71
2023-01-25T10:27:28.738Z,102881.23
2023-01-25T10:30:00.193Z,102878.27
2023-01-25T10:32:35.875Z,102876.11
2023-01-25T10:35:34.383Z,102871.88
2023-01-25T10:38:11.810Z,102876.63
2023-01-25T10:41:03.730Z,102877.80
2023-01-25T10:43:32.520Z,102875.25
2023-01-25T10:46:02.326Z,102864.77
2023-01-25T10:48:34.771Z,102864.58
2023-01-25T10:51:02.893Z,102857.91
2023-01-25T10:53:35.576Z,102855.11
2023-01-25T10:56:24.354Z,102853.34
2023-01-25T10:59:07.565Z,102846.11
2023-01-25T11:01:37.443Z,102846.29
2023-01-25T11:04:25.195Z,102840.98
2023-01-25T11:06:53.621Z,102839.80
2023-01-25T11:09:22.275Z,102838.77
2023-01-25T11:12:03.753Z,102836.73
2023-01-25T11:14:34.021Z,102830.27
2023-01-25T11:17:05.538Z,102827.61
2023-01-25T11:19:38.012Z,102823.71
2023-01-25T11:22:28.296Z,102825.34
2023-01-25T11:24:56.580Z,102821.04
2023-01-25T11:27:28.239Z,102818.00
2023-01-25T11:30:10.027Z,102813.77
2023-01-25T11:32:39.963Z,102812.00
2023-01-25T11:35:26.859Z,102809.86
2023-01-25T11:38:14.384Z,102808.92
2023-01-25T11:40:52.891Z,102807.70
2023-01-25T11:43:24.036Z,102804.35
2023-01-25T11:46:31.539Z,102797.15
2023-01-25T11:49:18.525Z,102797.13
2023-01-25T11:52:02.567Z,102792.28
2023-01-25T11:54:58.374Z,102791.50
2023-01-25T11:58:00.222Z,102788.95
2023-01-25T12:00:31.585Z,102788.23
2023-01-25T12:03:36.634Z,102787.52
2023-01-25T12:06:14.290Z,102787.35
2023-01-25T12:08:59.672Z,102786.30
2023-01-25T12:11:49.845Z,102782.41
2023-01-25T12:14:35.218Z,102782.24
2023-01-25T12:17:36.861Z,102785.50
2023-01-25T12:20:22.647Z,102781.13
2023-01-25T12:22:53.998Z,102778.96
2023-01-25T12:25:47.449Z,102779.13
2023-01-25T12:28:28.361Z,102774.61
2023-01-25T12:31:19.675Z,102773.86
2023-01-25T12:33:57.268Z,102769.38
2023-01-25T12:36:34.418Z,102769.66
2023-01-25T12:39:26.231Z,102769.02
2023-01-25T12:41:54.411Z,102765.49
2023-01-25T12:44:39.262Z,102771.17
2023-01-25T12:47:23.722Z,102772.79
2023-01-25T12:49:55.179Z,102773.39
2023-01-25T12:52:41.049Z,102774.70
2023-01-25T12:55:17.932Z,102774.04
2023-01-25T12:58:17.138Z,102773.20
2023-01-25T13:01:24.881Z,102766.89
2023-01-25T13:04:25.218Z,102765.97
2023-01-25T13:07:18.269Z,102762.63
2023-01-25T13:09:58.519Z,102763.55
2023-01-25T13:12:27.492Z,102758.80
2023-01-25T13:14:55.901Z,102760.05
2023-01-25T13:17:38.245Z,102758.88
2023-01-25T13:20:48.712Z,102755.35
2023-01-25T13:23:52.294Z,102756.24
2023-01-25T13:26:28.505Z,102755.91
2023-01-25T13:29:00.472Z,102751.89
2023-01-25T13:31:59.040Z,102748.71
2023-01-25T13:34:37.660Z,102744.83
2023-01-25T13:37:19.544Z,102743.94
2023-01-25T13:39:53.147Z,102740.94
2023-01-25T13:42:27.268Z,102738.87
2023-01-25T13:45:03.013Z,102734.31
2023-01-25T13:47:39.756Z,102736.69
2023-01-25T13:50:27.419Z,102730.06
2023-01-25T13:53:01.394Z,102729.08
2023-01-25T13:55:37.799Z,102727.37
2023-01-25T13:58:21.747Z,102729.49
2023-01-25T14:00:59.191Z,102727.71
2023-01-25T14:03:43.371Z,102726.79
2023-01-25T14:06:27.429Z,102725.84
2023-01-25T14:08:59.798Z,102722.58
2023-01-25T14:11:34.856Z,102720.93
2023-01-25T14:14:17.129Z,102721.77
2023-01-25T14:16:45.731Z,102720.21
2023-01-25T14:19:32.282Z,102716.36
2023-01-25T14:22:28.543Z,102716.03
2023-01-25T14:25:08.319Z,102714.83
2023-01-25T14:27:41.780Z,102713.20
2023-01-25T14:30:19.830Z,102710.29
2023-01-25T14:32:50.323Z,102708.05
2023-01-25T14:36:11.624Z,102710.04
2023-01-25T14:38:36.774Z,102703.28
2023-01-25T14:41:28.027Z,102705.10
2023-01-25T14:43:59.584Z,102706.67
2023-01-25T14:46:32.780Z,102703.33
2023-01-25T14:49:17.943Z,102701.55
2023-01-25T14:51:53.595Z,102700.53
2023-01-25T14:54:25.971Z,102697.03
2023-01-25T14:57:08.577Z,102697.06
2023-01-25T14:59:44.276Z,102696.55
2023-01-25T15:02:54.054Z,102696.77
2023-01-25T15:05:27.659Z,102698.39
2023-01-25T15:08:08.232Z,102698.22
2023-01-25T15:10:38.098Z,102697.17
2023-01-25T15:13:14.604Z,102696.67
2023-01-25T15:15:54.046Z,102693.20
2023-01-25T15:19:00.916Z,102693.22
2023-01-25T15:21:33.761Z,102696.73
2023-01-25T15:24:06.998Z,102697.61
2023-01-25T15:26:36.621Z,102700.42
2023-01-25T15:29:14.014Z,102698.48
2023-01-25T15:31:43.410Z,102693.91
2023-01-25T15:34:16.801Z,102687.58
2023-01-25T15:36:46.013Z,102691.27
2023-01-25T15:39:17.353Z,102698.35
2023-01-25T15:41:46.315Z,102691.66
2023-01-25T15:44:15.259Z,102696.05
2023-01-25T15:46:48.843Z,102695.89
2023-01-25T15:49:28.012Z,102690.98
2023-01-25T15:51:56.775Z,102696.44
2023-01-25T15:54:25.409Z,102698.39
2023-01-25T15:56:59.041Z,102693.79
2023-01-25T15:59:28.292Z,102693.79
2023-01-25T16:01:56.965Z,102692.02
2023-01-25T16:04:26.492Z,102690.08
2023-01-25T16:06:55.463Z,102690.27
2023-01-25T16:09:31.141Z,102684.61
2023-01-25T16:12:01.624Z,102688.48
2023-01-25T16:14:31.609Z,102688.33
2023-01-25T16:17:05.836Z,102696.61
2023-01-25T16:19:34.291Z,102695.73
2023-01-25T16:22:02.561Z,102693.07
2023-01-25T16:24:30.740Z,102690.79
2023-01-25T16:27:00.815Z,102690.40
2023-01-25T16:29:29.536Z,102688.23
2023-01-25T16:31:57.999Z,102683.61
2023-01-25T16:34:26.439Z,102680.91
2023-01-25T16:36:54.824Z,102683.30
2023-01-25T16:39:28.469Z,102683.76
2023-01-25T16:41:57.896Z,102682.98
2023-01-25T16:44:26.416Z,102683.08
2023-01-25T16:46:55.623Z,102679.27
2023-01-25T16:49:27.312Z,102673.94
2023-01-25T16:51:56.074Z,102674.62
2023-01-25T16:54:26.106Z,102670.91
2023-01-25T16:56:55.368Z,102668.61
2023-01-25T16:59:24.899Z,102666.98
2023-01-25T17:01:53.403Z,102662.35
2023-01-25T17:04:21.996Z,102663.91
2023-01-25T17:06:50.906Z,102666.21
2023-01-25T17:09:25.437Z,102663.77
2023-01-25T17:11:55.417Z,102659.08
2023-01-25T17:14:23.748Z,102656.50
2023-01-25T17:16:55.672Z,102660.44
2023-01-25T17:19:24.263Z,102657.50
2023-01-25T17:21:52.552Z,102657.41
2023-01-25T17:24:21.946Z,102653.96
2023-01-25T17:26:51.220Z,102649.09
2023-01-25T17:29:19.740Z,102650.56
2023-01-25T17:31:48.588Z,102647.11
2023-01-25T17:34:19.804Z,102649.94
2023-01-25T17:36:50.216Z,102649.47
2023-01-25T17:39:19.984Z,102645.44
2023-01-25T17:41:50.466Z,102644.61
2023-01-25T17:44:21.456Z,102644.48
2023-01-25T17:46:51.034Z,102642.37
2023-01-25T17:49:22.639Z,102647.19
2023-01-25T17:51:50.828Z,102647.06
2023-01-25T17:54:19.910Z,102649.54
2023-01-25T17:56:48.557Z,102648.70
2023-01-25T17:59:17.249Z,102644.84
2023-01-25T18:01:46.159Z,102648.91
2023-01-25T18:04:17.759Z,102644.53
2023-01-25T18:06:46.488Z,102645.08
2023-01-25T18:09:14.771Z,102643.15
2023-01-25T18:11:43.467Z,102650.92
2023-01-25T18:14:16.882Z,102649.71
2023-01-25T18:16:45.264Z,102643.48
2023-01-25T18:19:14.274Z,102648.60
2023-01-25T18:21:43.532Z,102650.70
2023-01-25T18:24:25.284Z,102647.66
2023-01-25T18:27:05.041Z,102644.41
2023-01-25T18:29:59.458Z,102641.55
2023-01-25T18:32:28.368Z,102643.95
2023-01-25T18:34:57.099Z,102638.60
2023-01-25T18:37:29.560Z,102634.32
2023-01-25T18:39:57.915Z,102626.89
2023-01-25T18:42:28.012Z,102627.06
2023-01-25T18:44:56.219Z,102627.40
2023-01-25T18:47:24.597Z,102630.41
2023-01-25T18:49:52.988Z,102632.70
2023-01-25T18:52:23.147Z,102630.60
2023-01-25T18:54:51.804Z,102632.04
2023-01-25T18:57:21.099Z,102630.83
2023-01-25T18:59:49.792Z,102633.35
2023-01-25T19:02:19.453Z,102631.28
2023-01-25T19:04:47.794Z,102629.89
2023-01-25T19:07:16.648Z,102627.63
2023-01-25T19:09:44.882Z,102627.80
2023-01-25T19:12:13.471Z,102629.42
2023-01-25T19:14:41.736Z,102622.06
2023-01-25T19:17:10.134Z,102619.48
2023-01-25T19:19:38.506Z,102620.41
2023-01-25T19:22:06.788Z,102621.33
2023-01-25T19:24:35.180Z,102616.23
2023-01-25T19:27:04.060Z,102614.30
2023-01-25T19:29:32.346Z,102613.97
2023-01-25T19:32:00.736Z,102609.39
2023-01-25T19:34:29.020Z,102610.30
2023-01-25T19:36:58.428Z,102609.80
2023-01-25T19:39:26.743Z,102612.13
2023-01-25T19:41:55.097Z,102610.75
2023-01-25T19:44:24.718Z,102613.73
2023-01-25T19:46:53.393Z,102607.77
2023-01-25T19:49:22.616Z,102603.72
2023-01-25T19:51:53.447Z,102603.55
2023-01-25T19:54:23.128Z,102603.58
2023-01-25T19:56:51.858Z,102603.97
2023-01-25T19:59:25.011Z,102600.27
2023-01-25T20:01:54.081Z,102603.63
2023-01-25T20:04:24.637Z,102602.40
2023-01-25T20:06:53.266Z,102597.46
2023-01-25T20:09:27.779Z,102591.48
2023-01-25T20:11:57.920Z,102590.44
2023-01-25T20:14:26.321Z,102589.74
2023-01-25T20:16:54.998Z,102584.65
2023-01-25T20:19:23.170Z,102584.98
2023-01-25T20:21:51.568Z,102584.61
2023-01-25T20:24:19.989Z,102586.02
2023-01-25T20:26:49.187Z,102579.15
2023-01-25T20:29:17.628Z,102577.25
2023-01-25T20:31:46.444Z,102572.84
2023-01-25T20:34:20.977Z,102567.69
2023-01-25T20:36:50.456Z,102562.91
2023-01-25T20:39:20.892Z,102562.00
2023-01-25T20:41:53.609Z,102560.85
2023-01-25T20:44:22.689Z,102561.15
2023-01-25T20:46:52.270Z,102564.42
2023-01-25T20:49:20.671Z,102563.13
2023-01-25T20:51:48.962Z,102566.54
2023-01-25T20:54:18.404Z,102563.63
2023-01-25T20:56:48.313Z,102560.60
2023-01-25T20:59:17.909Z,102560.51
2023-01-25T21:01:47.032Z,102559.05
2023-01-25T21:04:15.786Z,102551.45
2023-01-25T21:06:44.276Z,102550.53
2023-01-25T21:09:12.963Z,102552.45
2023-01-25T21:11:41.531Z,102556.38
2023-01-25T21:14:09.951Z,102561.87
2023-01-25T21:16:38.379Z,102556.57
2023-01-25T21:19:07.641Z,102555.02
2023-01-25T21:21:35.971Z,102548.61
2023-01-25T21:24:05.944Z,102545.72
2023-01-25T21:26:36.157Z,102539.25
2023-01-25T21:29:06.007Z,102536.98
2023-01-25T21:31:36.778Z,102537.36
2023-01-25T21:34:06.461Z,102538.79
2023-01-25T21:36:34.703Z,102534.42
2023-01-25T21:39:02.987Z,102528.48
2023-01-25T21:41:33.837Z,102524.02
2023-01-25T21:44:21.807Z,102523.40
2023-01-25T21:47:19.762Z,102529.97
2023-01-25T21:49:57.621Z,102530.88
2023-01-25T21:52:25.809Z,102521.73
2023-01-25T21:54:53.979Z,102521.38
2023-01-25T21:57:22.914Z,102515.91
2023-01-25T21:59:53.944Z,102510.12
2023-01-25T22:02:22.951Z,102504.84
2023-01-25T22:04:51.735Z,102502.05
2023-01-25T22:07:19.890Z,102504.17
2023-01-25T22:09:49.580Z,102506.98
2023-01-25T22:12:17.908Z,102508.23
2023-01-25T22:14:46.888Z,102504.70
2023-01-25T22:17:15.285Z,102506.48
2023-01-25T22:19:43.660Z,102505.98
2023-01-25T22:22:11.936Z,102496.18
2023-01-25T22:24:40.329Z,102496.94
2023-01-25T22:27:09.017Z,102499.61
2023-01-25T22:29:37.299Z,102495.41
2023-01-25T22:32:05.994Z,102492.42
2023-01-25T22:34:34.581Z,102493.31
2023-01-25T22:37:02.765Z,102493.83
2023-01-25T22:39:30.940Z,102492.58
2023-01-25T22:41:59.218Z,102492.37
2023-01-25T22:44:27.606Z,102486.91
2023-01-25T22:46:56.602Z,102485.84
2023-01-25T22:49:24.997Z,102483.16
2023-01-25T22:51:53.185Z,102473.65
2023-01-25T22:54:21.344Z,102473.23
2023-01-25T22:56:49.739Z,102474.01
2023-01-25T22:59:19.557Z,102469.48
2023-01-25T23:01:47.929Z,102464.96
2023-01-25T23:04:16.678Z,102463.27
2023-01-25T23:06:45.107Z,102463.72
2023-01-25T23:09:13.494Z,102462.29
2023-01-25T23:11:41.993Z,102457.31
2023-01-25T23:14:31.146Z,102457.30
2023-01-25T23:17:18.367Z,102458.21
2023-01-25T23:19:47.153Z,102453.77
2023-01-25T23:22:15.327Z,102450.23
2023-01-25T23:24:43.914Z,102449.80
2023-01-25T23:27:12.813Z,102443.48
2023-01-25T23:29:41.501Z,102439.44
2023-01-25T23:32:09.889Z,102439.44
2023-01-25T23:34:40.421Z,102439.85
2023-01-25T23:37:08.919Z,102438.66
2023-01-25T23:39:37.930Z,102434.34
2023-01-25T23:42:06.203Z,102431.38
2023-01-25T23:44:34.475Z,102430.19
2023-01-25T23:47:03.370Z,102435.16
2023-01-25T23:49:31.752Z,102432.73
2023-01-25T23:52:00.242Z,102433.80
2023-01-25T23:54:28.527Z,102431.86
2023-01-25T23:56:57.003Z,102421.65
2023-01-25T23:59:26.107Z,102417.86
